Time;durP1;ratioP1;P1;durP2;ratioP2;P2;SDS_P1;SDS_P2;PMS_P1;PMS_P2;Temp;Humidity;BMP_temperature;BMP_pressure;BME280_temperature;BME280_humidity;BME280_pressure;Samples;Min_cycle;Max_cycle;Signal;HPM_P1;HPM_P2
2021/08/18 00:00:49;;;;;;;36.85;19.80;;;14.90;99.90;;;;;;5007068;28;20034;-63
2021/08/18 00:03:15;;;;;;;34.30;19.33;;;14.90;99.90;;;;;;5008223;28;20026;-61
2021/08/18 00:05:42;;;;;;;33.03;18.52;;;14.90;99.90;;;;;;5008822;28;20026;-62
2021/08/18 00:08:09;;;;;;;36.20;19.63;;;14.90;99.90;;;;;;5008751;28;20034;-59
2021/08/18 00:10:35;;;;;;;35.30;19.83;;;15.00;99.90;;;;;;5005883;28;20555;-63
2021/08/18 00:13:02;;;;;;;37.28;19.92;;;15.00;99.90;;;;;;5008723;28;20141;-61
2021/08/18 00:15:29;;;;;;;33.45;20.08;;;15.00;99.90;;;;;;5007866;28;20350;-60
2021/08/18 00:17:59;;;;;;;37.38;19.90;;;15.00;99.90;;;;;;5007058;28;20033;-61
2021/08/18 00:20:25;;;;;;;34.45;21.35;;;15.10;99.90;;;;;;4999954;28;20091;-59
2021/08/18 00:22:51;;;;;;;36.13;19.52;;;15.00;99.90;;;;;;5007321;28;20026;-62
2021/08/18 00:25:16;;;;;;;34.95;21.30;;;15.00;99.90;;;;;;5025344;22;20018;-58
2021/08/18 00:27:42;;;;;;;40.95;21.60;;;15.00;99.90;;;;;;5042134;28;20029;-59
2021/08/18 00:30:08;;;;;;;40.83;22.50;;;15.00;99.90;;;;;;5039745;28;20024;-59
2021/08/18 00:32:33;;;;;;;40.42;21.23;;;15.00;99.90;;;;;;5037285;28;20412;-59
2021/08/18 00:34:59;;;;;;;43.58;23.00;;;15.00;99.90;;;;;;5035129;28;20032;-58
2021/08/18 00:37:24;;;;;;;44.75;22.80;;;15.10;99.90;;;;;;5039801;28;20024;-60
2021/08/18 00:39:50;;;;;;;38.33;20.90;;;15.00;99.90;;;;;;5042045;28;20400;-59
2021/08/18 00:42:21;;;;;;;36.75;21.45;;;15.00;99.90;;;;;;5040136;28;20491;-59
2021/08/18 00:44:46;;;;;;;38.33;21.08;;;15.00;99.90;;;;;;5042255;28;20033;-56
2021/08/18 00:47:12;;;;;;;39.22;21.05;;;15.00;99.90;;;;;;5042696;28;20034;-59
2021/08/18 00:49:37;;;;;;;39.08;21.58;;;15.00;99.90;;;;;;5040594;28;20055;-59
2021/08/18 00:52:05;;;;;;;40.92;21.02;;;15.00;99.90;;;;;;5039469;28;20040;-58
2021/08/18 00:54:30;;;;;;;42.65;22.60;;;15.00;99.90;;;;;;5040938;28;20075;-56
2021/08/18 00:56:57;;;;;;;42.58;22.23;;;14.90;99.90;;;;;;5034790;28;20025;-56
2021/08/18 00:59:25;;;;;;;36.25;20.25;;;15.00;99.90;;;;;;5040385;28;20457;-57
2021/08/18 01:01:50;;;;;;;41.92;21.60;;;15.00;99.90;;;;;;5034192;28;20718;-60
2021/08/18 01:04:16;;;;;;;38.53;22.00;;;15.00;99.90;;;;;;5041635;28;20038;-57
2021/08/18 01:06:43;;;;;;;38.28;21.17;;;14.90;99.90;;;;;;5035885;28;20119;-57
2021/08/18 01:09:11;;;;;;;34.65;18.58;;;15.00;99.90;;;;;;5034831;28;20397;-57
2021/08/18 01:11:42;;;;;;;34.83;19.65;;;15.00;99.90;;;;;;5043881;28;20032;-58
2021/08/18 01:14:09;;;;;;;32.50;18.48;;;15.00;99.90;;;;;;5034659;28;20033;-59
2021/08/18 01:16:35;;;;;;;37.33;19.48;;;15.00;99.90;;;;;;5041139;28;20052;-58
2021/08/18 01:19:02;;;;;;;33.80;19.55;;;15.00;99.90;;;;;;5043145;28;20044;-59
2021/08/18 01:21:30;;;;;;;29.80;17.98;;;15.10;99.90;;;;;;5041374;28;20112;-56
2021/08/18 01:23:56;;;;;;;38.22;20.45;;;15.10;99.90;;;;;;5041162;28;20025;-58
2021/08/18 01:26:22;;;;;;;37.38;20.20;;;15.10;99.90;;;;;;5037728;28;20033;-58
2021/08/18 01:28:50;;;;;;;39.78;20.95;;;15.10;99.90;;;;;;5044469;28;20039;-60
2021/08/18 01:31:16;;;;;;;41.33;21.02;;;15.10;99.90;;;;;;5043057;28;20017;-60
2021/08/18 01:33:41;;;;;;;41.72;22.00;;;15.10;99.90;;;;;;5039133;28;20026;-56
2021/08/18 01:36:07;;;;;;;37.17;21.10;;;15.10;99.90;;;;;;5037439;28;20047;-56
2021/08/18 01:38:33;;;;;;;40.00;21.85;;;15.10;99.90;;;;;;5043201;28;20040;-59
2021/08/18 01:40:58;;;;;;;45.50;23.45;;;15.10;99.90;;;;;;5034720;28;20070;-58
2021/08/18 01:43:24;;;;;;;45.40;24.27;;;15.10;99.90;;;;;;5039645;28;20021;-59
2021/08/18 01:45:51;;;;;;;48.50;24.38;;;15.10;99.90;;;;;;5044951;28;20079;-58
2021/08/18 01:48:29;;;;;;;49.03;24.65;;;15.10;99.90;;;;;;5040714;28;20036;-56
2021/08/18 01:50:56;;;;;;;41.83;23.40;;;15.10;99.90;;;;;;5042634;28;20036;-55
2021/08/18 01:53:40;;;;;;;49.35;25.05;;;15.20;99.90;;;;;;5038015;28;20029;-58
2021/08/18 01:56:07;;;;;;;43.22;24.52;;;15.20;99.90;;;;;;5035684;28;20492;-60
2021/08/18 01:58:34;;;;;;;49.63;26.70;;;15.20;99.90;;;;;;5037809;28;20033;-59
2021/08/18 02:01:03;;;;;;;47.25;26.20;;;15.20;99.90;;;;;;5040459;28;20109;-57
2021/08/18 02:03:29;;;;;;;42.17;23.08;;;15.20;99.90;;;;;;5036794;28;20439;-57
2021/08/18 02:05:54;;;;;;;39.90;22.30;;;15.20;99.90;;;;;;5043097;28;20041;-58
2021/08/18 02:08:20;;;;;;;47.28;25.52;;;15.20;99.90;;;;;;5042542;28;20037;-59
2021/08/18 02:10:46;;;;;;;39.35;22.73;;;15.20;99.90;;;;;;5047488;28;20047;-59
2021/08/18 02:13:12;;;;;;;42.70;23.50;;;15.20;99.90;;;;;;5043189;28;20029;-57
2021/08/18 02:15:38;;;;;;;43.70;24.17;;;15.20;99.90;;;;;;5041499;28;20058;-58
2021/08/18 02:18:05;;;;;;;45.50;25.00;;;15.20;99.90;;;;;;5042636;28;20033;-58
2021/08/18 02:20:33;;;;;;;47.83;24.98;;;15.20;99.90;;;;;;5042334;28;20021;-59
2021/08/18 02:23:00;;;;;;;46.63;25.67;;;15.20;99.90;;;;;;5041004;28;20036;-55
2021/08/18 02:25:26;;;;;;;46.63;25.55;;;15.20;99.90;;;;;;5042390;28;20094;-55
2021/08/18 02:27:52;;;;;;;46.17;24.90;;;15.20;99.90;;;;;;5044315;28;20179;-59
2021/08/18 02:30:21;;;;;;;48.22;27.40;;;15.20;99.90;;;;;;5039071;28;20021;-60
2021/08/18 02:32:47;;;;;;;50.55;25.98;;;15.20;99.90;;;;;;5032105;28;20115;-62
2021/08/18 02:35:13;;;;;;;44.40;24.58;;;15.20;99.90;;;;;;5040807;28;20071;-62
2021/08/18 02:37:40;;;;;;;48.95;25.58;;;15.20;99.90;;;;;;5033295;28;20037;-55
2021/08/18 02:40:08;;;;;;;47.08;26.30;;;15.20;99.90;;;;;;5036008;28;20032;-55
2021/08/18 02:42:34;;;;;;;48.95;25.00;;;15.20;99.90;;;;;;5041010;28;20396;-62
2021/08/18 02:45:00;;;;;;;44.00;26.02;;;15.20;99.90;;;;;;5039211;28;20029;-59
2021/08/18 02:47:25;;;;;;;54.05;27.60;;;15.20;99.90;;;;;;5038641;28;20188;-56
2021/08/18 02:49:53;;;;;;;42.85;24.67;;;15.20;99.90;;;;;;5039710;28;20525;-62
2021/08/18 02:52:19;;;;;;;40.33;23.08;;;15.20;99.90;;;;;;5041226;28;20044;-60
2021/08/18 02:54:44;;;;;;;40.92;23.23;;;15.20;99.90;;;;;;5039594;28;20481;-60
2021/08/18 02:57:10;;;;;;;37.35;21.42;;;15.20;99.90;;;;;;5038606;28;20639;-60
2021/08/18 02:59:36;;;;;;;34.70;21.77;;;15.20;99.90;;;;;;5038761;28;20027;-59
2021/08/18 03:02:01;;;;;;;41.85;23.48;;;15.20;99.90;;;;;;5040419;28;20026;-55
2021/08/18 03:04:27;;;;;;;45.90;23.90;;;15.20;99.90;;;;;;5037432;28;20025;-54
2021/08/18 03:06:54;;;;;;;41.72;22.80;;;15.20;99.90;;;;;;5034362;28;20104;-59
2021/08/18 03:09:23;;;;;;;42.30;23.35;;;15.20;99.90;;;;;;5034162;28;20025;-55
2021/08/18 03:11:53;;;;;;;42.40;23.55;;;15.20;99.90;;;;;;5041186;28;20091;-62
2021/08/18 03:14:19;;;;;;;40.53;22.30;;;15.20;99.90;;;;;;5038927;28;20028;-60
2021/08/18 03:16:45;;;;;;;33.75;19.95;;;15.20;99.90;;;;;;5037306;28;20025;-61
2021/08/18 03:19:11;;;;;;;37.38;21.67;;;15.30;99.90;;;;;;5033187;28;20049;-59
2021/08/18 03:21:37;;;;;;;33.20;20.90;;;15.20;99.90;;;;;;5043333;28;20106;-60
2021/08/18 03:24:03;;;;;;;35.28;19.98;;;15.20;99.90;;;;;;5038753;28;20079;-59
2021/08/18 03:26:28;;;;;;;32.95;20.90;;;15.30;99.90;;;;;;5039074;28;20049;-59
2021/08/18 03:28:54;;;;;;;39.63;23.10;;;15.20;99.90;;;;;;5035381;28;20507;-59
2021/08/18 03:31:19;;;;;;;38.15;22.17;;;15.20;99.90;;;;;;5036022;28;20688;-57
2021/08/18 03:33:45;;;;;;;35.83;21.48;;;15.30;99.90;;;;;;5036512;28;20037;-60
2021/08/18 03:36:11;;;;;;;31.40;19.92;;;15.20;99.90;;;;;;5037783;28;20144;-59
2021/08/18 03:38:36;;;;;;;34.90;21.02;;;15.20;99.90;;;;;;5045911;28;20029;-61
2021/08/18 03:41:03;;;;;;;36.58;22.02;;;15.20;99.90;;;;;;5038527;28;20025;-57
2021/08/18 03:43:28;;;;;;;42.80;23.70;;;15.20;99.90;;;;;;5043647;28;20025;-61
2021/08/18 03:45:54;;;;;;;41.10;21.33;;;15.20;99.90;;;;;;5034391;28;20044;-60
2021/08/18 03:48:19;;;;;;;34.42;21.63;;;15.20;99.90;;;;;;5038349;28;20040;-58
2021/08/18 03:50:45;;;;;;;35.58;20.98;;;15.20;99.90;;;;;;5040349;28;20104;-59
2021/08/18 03:53:11;;;;;;;39.92;22.02;;;15.20;99.90;;;;;;5038852;28;20488;-59
2021/08/18 03:55:36;;;;;;;35.47;20.73;;;15.20;99.90;;;;;;5033631;28;20064;-61
2021/08/18 03:58:02;;;;;;;35.72;20.15;;;15.20;99.90;;;;;;5038690;28;20025;-59
2021/08/18 04:00:28;;;;;;;40.33;22.08;;;15.20;99.90;;;;;;5030996;28;20036;-58
2021/08/18 04:02:53;;;;;;;38.28;20.45;;;15.20;99.90;;;;;;5040781;28;20033;-59
2021/08/18 04:05:19;;;;;;;35.88;20.20;;;15.20;99.90;;;;;;5037657;28;20052;-60
2021/08/18 04:07:44;;;;;;;34.42;18.67;;;15.20;99.90;;;;;;5038240;28;20033;-61
2021/08/18 04:10:11;;;;;;;34.25;19.08;;;15.20;99.90;;;;;;5043506;28;20097;-59
2021/08/18 04:12:57;;;;;;;29.98;18.35;;;15.20;99.90;;;;;;5044385;28;20029;-60
2021/08/18 04:15:28;;;;;;;26.83;17.48;;;15.20;99.90;;;;;;5038726;28;20021;-58
2021/08/18 04:17:54;;;;;;;30.98;17.38;;;15.20;99.90;;;;;;5042432;28;20048;-58
2021/08/18 04:20:21;;;;;;;30.60;17.65;;;15.20;99.90;;;;;;5043879;28;20024;-60
2021/08/18 04:22:47;;;;;;;27.75;16.35;;;15.10;99.90;;;;;;5038941;28;20551;-57
2021/08/18 04:25:14;;;;;;;24.77;15.13;;;15.20;99.90;;;;;;5037153;28;20041;-61
2021/08/18 04:27:41;;;;;;;26.08;15.20;;;15.20;99.90;;;;;;5043190;28;20045;-56
2021/08/18 04:30:10;;;;;;;22.73;14.43;;;15.20;99.90;;;;;;5037403;28;20440;-58
2021/08/18 04:32:36;;;;;;;20.42;13.70;;;15.20;99.90;;;;;;5038658;28;20401;-57
2021/08/18 04:35:05;;;;;;;18.10;11.95;;;15.20;99.90;;;;;;5037529;28;20477;-56
2021/08/18 04:37:31;;;;;;;22.83;12.95;;;15.20;99.90;;;;;;5037756;28;20053;-61
2021/08/18 04:39:57;;;;;;;23.38;12.13;;;15.20;99.90;;;;;;5038612;28;20083;-60
2021/08/18 04:42:22;;;;;;;23.98;11.95;;;15.20;99.90;;;;;;5038249;28;20025;-57
2021/08/18 04:44:48;;;;;;;22.48;12.73;;;15.20;99.90;;;;;;5043482;28;20033;-53
2021/08/18 04:47:13;;;;;;;16.50;11.20;;;15.20;99.90;;;;;;5042530;28;20029;-61
2021/08/18 04:49:39;;;;;;;21.23;12.93;;;15.20;99.90;;;;;;5038887;28;20029;-54
2021/08/18 04:52:05;;;;;;;20.27;12.98;;;15.30;99.90;;;;;;5037331;28;20065;-60
2021/08/18 04:54:30;;;;;;;25.60;13.20;;;15.20;99.90;;;;;;5043187;28;20040;-59
2021/08/18 04:56:56;;;;;;;22.98;13.18;;;15.20;99.90;;;;;;5034843;28;20029;-57
2021/08/18 04:59:21;;;;;;;21.77;12.43;;;15.30;99.90;;;;;;5044778;28;20029;-58
2021/08/18 05:01:47;;;;;;;20.15;12.10;;;15.30;99.90;;;;;;5039306;28;20021;-56
2021/08/18 05:04:12;;;;;;;23.00;13.10;;;15.30;99.90;;;;;;5041675;28;20039;-55
2021/08/18 05:06:38;;;;;;;26.40;13.52;;;15.30;99.90;;;;;;5042671;28;20056;-56
2021/08/18 05:09:04;;;;;;;27.63;14.65;;;15.30;99.90;;;;;;5039176;28;20029;-55
2021/08/18 05:11:29;;;;;;;24.83;14.73;;;15.40;99.90;;;;;;5043757;28;20534;-57
2021/08/18 05:13:55;;;;;;;22.05;14.65;;;15.40;99.90;;;;;;5058039;28;20033;-57
2021/08/18 05:16:20;;;;;;;30.70;16.83;;;15.40;99.90;;;;;;5044235;28;20492;-54
2021/08/18 05:18:46;;;;;;;26.02;16.20;;;15.40;99.90;;;;;;5041233;28;20045;-55
2021/08/18 05:21:12;;;;;;;32.95;19.10;;;15.50;99.90;;;;;;5040481;28;20884;-55
2021/08/18 05:23:37;;;;;;;33.15;18.02;;;15.50;99.90;;;;;;5041648;28;20056;-56
2021/08/18 05:26:03;;;;;;;33.13;19.40;;;15.50;99.90;;;;;;5042320;28;20072;-56
2021/08/18 05:28:28;;;;;;;35.67;21.45;;;15.50;99.90;;;;;;5041417;28;20392;-56
2021/08/18 05:30:54;;;;;;;46.83;26.02;;;15.50;99.90;;;;;;5044654;28;20496;-53
2021/08/18 05:33:20;;;;;;;45.25;25.25;;;15.50;99.90;;;;;;5040334;28;20406;-56
2021/08/18 05:35:45;;;;;;;46.97;26.80;;;15.60;99.90;;;;;;5040707;28;20377;-56
2021/08/18 05:38:11;;;;;;;60.38;30.30;;;15.60;99.90;;;;;;5043966;28;20036;-56
2021/08/18 05:40:37;;;;;;;50.60;30.00;;;15.60;99.90;;;;;;5040451;28;20025;-53
2021/08/18 05:43:02;;;;;;;63.63;32.38;;;15.70;99.90;;;;;;5046676;28;20056;-57
2021/08/18 05:45:28;;;;;;;58.15;30.98;;;15.70;99.90;;;;;;5041693;28;20537;-57
2021/08/18 05:47:53;;;;;;;48.95;28.73;;;15.70;99.90;;;;;;5033566;28;20042;-57
2021/08/18 05:50:19;;;;;;;60.13;33.28;;;15.80;99.90;;;;;;5034572;28;20135;-53
2021/08/18 05:52:45;;;;;;;61.22;34.10;;;15.80;99.90;;;;;;5050908;28;20104;-55
2021/08/18 05:55:11;;;;;;;62.03;34.28;;;15.80;99.90;;;;;;5052425;28;20033;-55
2021/08/18 05:57:36;;;;;;;62.38;35.22;;;15.80;99.90;;;;;;5050298;28;20021;-56
2021/08/18 06:00:04;;;;;;;61.45;34.55;;;15.80;99.90;;;;;;5052108;28;20048;-55
2021/08/18 06:02:30;;;;;;;59.28;33.05;;;15.80;99.90;;;;;;5035310;28;20033;-54
2021/08/18 06:04:55;;;;;;;61.15;33.78;;;15.90;99.90;;;;;;5049980;28;20390;-55
2021/08/18 06:07:21;;;;;;;62.90;34.90;;;15.90;99.90;;;;;;5052403;28;20455;-57
2021/08/18 06:09:46;;;;;;;61.65;35.25;;;15.90;99.90;;;;;;5050665;28;20130;-54
2021/08/18 06:12:12;;;;;;;65.05;38.10;;;16.00;99.90;;;;;;5047865;28;20060;-53
2021/08/18 06:14:38;;;;;;;59.53;34.80;;;16.00;99.90;;;;;;5052114;28;20546;-55
2021/08/18 06:17:04;;;;;;;69.35;37.00;;;16.00;99.90;;;;;;5052350;28;20029;-53
2021/08/18 06:19:30;;;;;;;66.10;36.25;;;16.00;99.90;;;;;;5039176;28;20031;-57
2021/08/18 06:21:55;;;;;;;62.63;35.65;;;16.00;99.90;;;;;;5046150;28;20405;-56
2021/08/18 06:27:06;;;;;;;57.65;35.03;;;16.10;99.90;;;;;;5047410;28;20040;-53
2021/08/18 06:29:34;;;;;;;57.53;35.60;;;16.10;99.90;;;;;;5045273;28;20025;-57
2021/08/18 06:32:00;;;;;;;53.22;33.35;;;16.10;99.90;;;;;;5038907;28;20032;-57
2021/08/18 06:34:26;;;;;;;52.65;31.67;;;16.10;99.90;;;;;;5032311;28;20033;-56
2021/08/18 06:36:51;;;;;;;54.35;31.45;;;16.20;99.90;;;;;;5051795;28;20082;-54
2021/08/18 06:39:17;;;;;;;52.70;31.35;;;16.20;99.90;;;;;;5037268;28;20108;-57
2021/08/18 06:41:42;;;;;;;54.50;32.10;;;16.20;99.90;;;;;;5044583;28;20103;-54
2021/08/18 06:44:08;;;;;;;50.30;28.02;;;16.20;99.90;;;;;;5051652;28;20040;-54
2021/08/18 06:46:33;;;;;;;41.53;24.88;;;16.30;99.90;;;;;;5045354;28;20032;-57
2021/08/18 06:48:59;;;;;;;40.47;23.30;;;16.20;99.90;;;;;;5040703;28;20040;-58
2021/08/18 06:51:24;;;;;;;37.70;23.55;;;16.30;99.90;;;;;;5051355;28;20025;-58
2021/08/18 06:53:50;;;;;;;34.78;22.80;;;16.30;99.90;;;;;;5051474;28;20025;-57
2021/08/18 06:56:15;;;;;;;25.90;17.77;;;16.40;99.90;;;;;;5035632;28;20029;-56
2021/08/18 06:58:41;;;;;;;26.70;17.92;;;16.50;99.90;;;;;;5040954;28;20489;-55
2021/08/18 07:01:06;;;;;;;24.88;17.10;;;16.50;99.90;;;;;;5035401;28;20029;-56
2021/08/18 07:03:33;;;;;;;22.42;15.52;;;16.50;99.90;;;;;;5046303;28;20422;-58
2021/08/18 07:05:59;;;;;;;28.52;16.23;;;16.40;99.90;;;;;;5048383;28;20103;-56
2021/08/18 07:08:25;;;;;;;21.92;14.63;;;16.50;99.90;;;;;;5032623;28;20072;-56
2021/08/18 07:10:53;;;;;;;23.60;14.35;;;16.50;99.90;;;;;;5050926;28;20029;-53
2021/08/18 07:13:19;;;;;;;27.33;16.20;;;16.60;99.90;;;;;;5044556;28;20467;-56
2021/08/18 07:15:45;;;;;;;28.80;16.95;;;16.60;99.90;;;;;;5031775;28;20037;-57
2021/08/18 07:18:10;;;;;;;27.27;16.40;;;16.50;99.90;;;;;;5051039;28;20071;-56
2021/08/18 07:20:36;;;;;;;28.38;17.60;;;16.60;99.90;;;;;;5050604;28;20025;-55
2021/08/18 07:23:02;;;;;;;23.95;17.08;;;16.60;99.90;;;;;;5050981;28;20389;-53
2021/08/18 07:25:27;;;;;;;30.60;18.92;;;16.70;99.90;;;;;;5050678;28;20504;-53
2021/08/18 07:27:53;;;;;;;29.05;19.60;;;16.70;99.90;;;;;;5043635;28;20029;-58
2021/08/18 07:30:18;;;;;;;37.88;21.70;;;16.70;99.90;;;;;;5044120;28;20056;-57
2021/08/18 07:32:44;;;;;;;36.00;22.50;;;16.70;99.90;;;;;;5050769;28;20057;-57
2021/08/18 07:35:10;;;;;;;35.17;23.02;;;16.80;99.90;;;;;;5050645;28;20064;-57
2021/08/18 07:37:37;;;;;;;38.13;23.02;;;16.80;99.90;;;;;;5050727;28;20414;-54
2021/08/18 07:40:03;;;;;;;33.72;22.60;;;16.90;99.90;;;;;;5050492;28;20025;-57
2021/08/18 07:42:28;;;;;;;35.92;23.23;;;16.90;99.90;;;;;;5040192;28;20516;-56
2021/08/18 07:44:54;;;;;;;35.72;22.95;;;17.00;99.90;;;;;;5032239;28;20044;-58
2021/08/18 07:47:19;;;;;;;35.80;23.10;;;17.00;99.90;;;;;;5045654;28;20028;-56
2021/08/18 07:49:45;;;;;;;34.47;23.23;;;17.10;99.90;;;;;;5035516;28;20032;-58
2021/08/18 07:52:10;;;;;;;38.17;24.38;;;17.20;99.90;;;;;;5031377;28;20037;-57
2021/08/18 07:54:36;;;;;;;30.30;20.02;;;17.20;99.90;;;;;;5033823;28;20033;-56
2021/08/18 07:57:02;;;;;;;28.27;19.63;;;17.30;99.90;;;;;;5031658;28;20029;-55
2021/08/18 07:59:27;;;;;;;32.40;20.55;;;17.40;99.90;;;;;;5050348;28;20043;-55
2021/08/18 08:01:53;;;;;;;34.63;22.45;;;17.50;99.90;;;;;;5045085;28;20468;-57
2021/08/18 08:04:18;;;;;;;32.08;21.63;;;17.50;99.90;;;;;;5042791;28;20025;-58
2021/08/18 08:06:45;;;;;;;31.60;20.38;;;17.30;99.90;;;;;;5050390;28;20025;-55
2021/08/18 08:09:11;;;;;;;30.70;19.98;;;17.20;99.90;;;;;;5050541;28;20025;-57
2021/08/18 08:11:37;;;;;;;31.83;20.08;;;17.20;99.90;;;;;;5049970;28;20534;-57
2021/08/18 08:14:02;;;;;;;30.10;18.45;;;17.30;99.90;;;;;;5039974;28;20386;-57
2021/08/18 08:16:28;;;;;;;28.50;18.67;;;17.30;99.90;;;;;;5038925;28;20033;-58
2021/08/18 08:18:54;;;;;;;23.85;16.60;;;17.20;99.90;;;;;;5041371;28;20096;-56
2021/08/18 08:21:20;;;;;;;20.77;15.15;;;17.20;99.90;;;;;;5054527;28;20154;-56
2021/08/18 08:23:45;;;;;;;21.17;15.43;;;17.20;99.90;;;;;;5048981;28;20029;-56
2021/08/18 08:26:11;;;;;;;24.25;15.20;;;17.20;99.90;;;;;;5038682;28;20051;-58
2021/08/18 08:28:37;;;;;;;22.30;16.13;;;17.10;99.90;;;;;;5043030;28;20103;-55
2021/08/18 08:31:02;;;;;;;23.85;17.08;;;17.10;99.90;;;;;;5036829;28;20152;-53
2021/08/18 08:33:29;;;;;;;26.02;17.80;;;17.10;99.90;;;;;;5030947;28;20033;-56
2021/08/18 08:35:54;;;;;;;25.83;17.75;;;17.10;99.90;;;;;;5049068;28;20029;-55
2021/08/18 08:38:20;;;;;;;23.52;16.48;;;17.10;99.90;;;;;;5037606;28;20041;-54
2021/08/18 08:40:46;;;;;;;21.27;15.27;;;17.10;99.90;;;;;;5030674;28;20036;-55
2021/08/18 08:43:16;;;;;;;16.08;12.70;;;17.20;99.90;;;;;;5030778;28;20048;-57
2021/08/18 08:45:46;;;;;;;17.45;11.35;;;17.00;99.90;;;;;;5030968;28;20081;-57
2021/08/18 08:48:15;;;;;;;17.80;11.27;;;17.10;99.90;;;;;;5034329;28;20401;-55
2021/08/18 08:50:40;;;;;;;16.50;10.23;;;17.00;99.90;;;;;;5045238;28;20036;-57
2021/08/18 08:53:06;;;;;;;16.73;9.32;;;16.90;99.90;;;;;;5030910;28;20544;-56
2021/08/18 08:55:32;;;;;;;12.93;9.93;;;16.80;99.90;;;;;;5048455;28;20116;-55
2021/08/18 08:57:57;;;;;;;14.82;9.68;;;16.90;99.90;;;;;;5036676;28;20022;-57
2021/08/18 09:00:24;;;;;;;15.55;8.07;;;16.80;99.90;;;;;;5034133;28;20226;-56
2021/08/18 09:03:08;;;;;;;9.43;6.63;;;16.80;99.90;;;;;;5035900;28;20481;-57
2021/08/18 09:05:34;;;;;;;11.45;6.72;;;16.70;99.90;;;;;;5034396;28;20096;-57
2021/08/18 09:08:00;;;;;;;12.55;5.93;;;16.70;99.90;;;;;;5051283;28;20442;-57
2021/08/18 09:10:26;;;;;;;6.97;4.07;;;16.80;99.90;;;;;;5038850;28;20090;-54
2021/08/18 09:13:10;;;;;;;6.95;3.63;;;16.80;99.90;;;;;;5036156;28;20037;-54
2021/08/18 09:15:36;;;;;;;8.32;4.45;;;16.80;99.90;;;;;;5053438;28;20032;-54
2021/08/18 09:18:01;;;;;;;8.07;4.95;;;16.70;99.90;;;;;;5047747;28;20108;-57
2021/08/18 09:20:31;;;;;;;4.88;3.90;;;16.60;99.90;;;;;;5041253;28;20079;-56
2021/08/18 09:23:00;;;;;;;5.78;4.68;;;16.60;99.90;;;;;;5048675;28;20079;-56
2021/08/18 09:25:29;;;;;;;6.38;4.70;;;16.70;99.90;;;;;;5034003;28;20064;-56
2021/08/18 09:28:14;;;;;;;5.70;4.35;;;16.70;99.90;;;;;;5052583;28;20033;-55
2021/08/18 09:30:48;;;;;;;6.40;5.18;;;16.70;99.90;;;;;;5034222;28;20032;-56
2021/08/18 09:33:22;;;;;;;8.07;6.18;;;16.80;99.90;;;;;;5033860;28;20037;-56
2021/08/18 09:35:55;;;;;;;9.10;6.95;;;16.70;99.90;;;;;;5035426;28;20163;-55
2021/08/18 09:38:24;;;;;;;13.02;8.18;;;16.80;99.90;;;;;;5036873;28;20037;-58
2021/08/18 09:40:51;;;;;;;10.82;7.35;;;16.90;99.90;;;;;;5052549;28;20071;-56
2021/08/18 09:43:24;;;;;;;17.17;10.38;;;16.90;99.90;;;;;;5052900;28;20587;-53
2021/08/18 09:46:03;;;;;;;15.80;9.40;;;17.00;99.90;;;;;;5052442;28;20090;-55
2021/08/18 09:48:33;;;;;;;13.68;8.88;;;17.20;99.90;;;;;;5052790;28;20028;-53
2021/08/18 09:51:08;;;;;;;15.55;11.35;;;17.40;99.90;;;;;;5037173;28;20025;-54
2021/08/18 09:53:39;;;;;;;17.17;12.75;;;17.50;99.90;;;;;;5050002;28;20112;-54
2021/08/18 09:56:13;;;;;;;22.50;13.27;;;17.60;99.90;;;;;;5048018;28;20036;-56
2021/08/18 09:58:54;;;;;;;18.77;12.30;;;17.70;99.90;;;;;;5054469;28;20057;-57
2021/08/18 10:01:20;;;;;;;19.90;14.02;;;17.90;99.90;;;;;;5033123;28;20561;-57
2021/08/18 10:03:48;;;;;;;21.77;14.80;;;18.00;99.90;;;;;;5033136;28;20535;-57
2021/08/18 10:06:15;;;;;;;23.52;15.63;;;18.10;99.90;;;;;;5033124;28;20037;-54
2021/08/18 10:08:43;;;;;;;24.75;16.27;;;18.20;99.90;;;;;;5040211;28;20024;-58
2021/08/18 10:11:14;;;;;;;23.70;16.45;;;18.20;99.90;;;;;;5040609;28;20506;-57
2021/08/18 10:13:40;;;;;;;18.60;14.45;;;18.20;99.90;;;;;;5043139;28;20039;-57
2021/08/18 10:16:08;;;;;;;23.45;15.77;;;18.10;99.90;;;;;;5052073;28;20114;-57
2021/08/18 10:18:36;;;;;;;23.25;15.88;;;18.20;99.90;;;;;;5052522;28;20040;-57
2021/08/18 10:21:23;;;;;;;20.95;14.85;;;18.20;99.90;;;;;;5038206;28;20025;-54
2021/08/18 10:23:55;;;;;;;19.00;14.45;;;18.20;99.90;;;;;;5039845;28;20529;-55
2021/08/18 10:26:36;;;;;;;25.30;16.65;;;18.30;99.90;;;;;;5040268;28;20041;-54
2021/08/18 10:29:01;;;;;;;22.63;15.27;;;18.30;99.90;;;;;;5033832;28;20436;-55
2021/08/18 10:34:22;;;;;;;23.17;16.48;;;18.10;99.90;;;;;;5035204;28;20052;-58
2021/08/18 10:36:51;;;;;;;23.02;16.38;;;18.00;99.90;;;;;;5047886;28;20477;-59
2021/08/18 10:39:22;;;;;;;24.38;14.63;;;17.90;99.90;;;;;;5046543;28;20032;-57
2021/08/18 10:42:08;;;;;;;13.65;10.18;;;18.00;99.90;;;;;;5044605;28;20444;-55
2021/08/18 10:44:39;;;;;;;13.93;9.15;;;17.80;99.90;;;;;;5035766;28;20109;-57
2021/08/18 10:47:25;;;;;;;15.02;8.30;;;17.80;99.90;;;;;;5040820;28;20404;-57
2021/08/18 10:49:52;;;;;;;10.85;8.05;;;17.80;99.90;;;;;;5038946;28;20112;-55
2021/08/18 10:52:30;;;;;;;12.05;5.38;;;17.90;99.90;;;;;;5035327;28;20038;-58
2021/08/18 10:55:04;;;;;;;6.28;5.20;;;18.10;99.90;;;;;;5038811;28;20021;-58
2021/08/18 10:57:45;;;;;;;9.55;5.38;;;18.20;99.90;;;;;;5045153;28;20017;-56
2021/08/18 11:00:11;;;;;;;11.05;5.90;;;18.20;99.90;;;;;;5048669;28;20094;-57
2021/08/18 11:02:56;;;;;;;15.73;6.38;;;18.20;99.90;;;;;;5035757;28;20025;-57
2021/08/18 11:05:27;;;;;;;10.25;5.53;;;18.20;99.90;;;;;;5040741;28;20074;-59
2021/08/18 11:08:11;;;;;;;6.72;5.30;;;18.20;99.90;;;;;;5038204;28;20030;-56
2021/08/18 11:10:55;;;;;;;10.95;6.00;;;18.10;99.90;;;;;;5031634;28;20041;-55
2021/08/18 11:13:50;;;;;;;11.50;5.95;;;18.00;99.90;;;;;;5042841;28;20021;-58
2021/08/18 11:16:17;;;;;;;;;;;17.90;99.90;;;;;;5044209;28;20037;-58
2021/08/18 11:18:46;;;;;;;8.95;6.95;;;17.70;99.90;;;;;;5039817;28;19909;-55
2021/08/18 11:21:16;;;;;;;8.95;6.28;;;17.60;99.90;;;;;;5044881;28;20469;-57
2021/08/18 11:23:48;;;;;;;8.55;6.68;;;17.60;99.90;;;;;;5034865;28;20045;-58
2021/08/18 11:26:18;;;;;;;10.82;6.90;;;17.50;99.90;;;;;;5041559;28;20033;-53
2021/08/18 11:28:52;;;;;;;8.50;6.63;;;17.50;99.90;;;;;;5035533;28;20029;-57
2021/08/18 11:31:17;;;;;;;8.70;6.68;;;17.60;99.90;;;;;;5032157;28;20068;-58
2021/08/18 11:33:43;;;;;;;10.13;7.43;;;17.80;99.90;;;;;;5047127;28;20508;-56
2021/08/18 11:36:13;;;;;;;8.82;7.20;;;18.00;99.90;;;;;;5032055;28;20057;-57
2021/08/18 11:38:39;;;;;;;8.82;6.53;;;18.10;99.90;;;;;;5043059;28;20346;-57
2021/08/18 11:41:04;;;;;;;10.23;8.13;;;18.30;99.90;;;;;;5041998;28;20056;-56
2021/08/18 11:43:38;;;;;;;12.25;9.00;;;18.60;99.90;;;;;;5034422;28;20052;-54
2021/08/18 11:46:04;;;;;;;13.30;9.13;;;18.90;99.90;;;;;;5040461;28;20033;-54
2021/08/18 11:48:31;;;;;;;11.98;8.80;;;18.90;99.90;;;;;;5042587;28;20036;-57
2021/08/18 11:50:57;;;;;;;12.23;9.20;;;18.80;99.90;;;;;;5037961;28;20064;-58
2021/08/18 11:53:23;;;;;;;18.00;9.85;;;18.80;99.90;;;;;;5044472;28;20439;-56
2021/08/18 11:55:58;;;;;;;11.85;9.93;;;18.60;99.90;;;;;;5037205;28;20489;-57
2021/08/18 11:58:31;;;;;;;13.00;8.60;;;18.60;99.90;;;;;;5044934;28;20107;-55
2021/08/18 12:00:58;;;;;;;17.48;11.10;;;18.70;99.90;;;;;;5046228;28;20029;-54
2021/08/18 12:03:24;;;;;;;15.00;9.50;;;18.70;99.90;;;;;;5041446;28;20025;-55
2021/08/18 12:06:00;;;;;;;17.98;11.07;;;18.70;99.90;;;;;;5046265;28;20492;-57
2021/08/18 12:08:37;;;;;;;14.63;10.02;;;18.70;99.90;;;;;;5041986;28;20046;-57
2021/08/18 12:11:04;;;;;;;15.73;10.73;;;18.80;99.90;;;;;;5037073;28;20067;-56
2021/08/18 12:13:42;;;;;;;12.90;9.77;;;18.80;99.90;;;;;;5041259;28;20037;-54
2021/08/18 12:16:26;;;;;;;11.63;9.18;;;18.80;99.90;;;;;;5037752;28;20037;-55
2021/08/18 12:18:53;;;;;;;;;;;18.70;99.90;;;;;;5046582;28;20017;-58
2021/08/18 12:21:27;;;;;;;14.98;8.52;;;18.60;99.90;;;;;;5046952;28;19909;-57
2021/08/18 12:23:58;;;;;;;12.27;8.73;;;18.50;99.90;;;;;;5044302;28;20029;-58
2021/08/18 12:26:32;;;;;;;16.08;8.27;;;18.60;99.90;;;;;;5059710;22;20045;-61
2021/08/18 12:29:05;;;;;;;12.40;8.75;;;18.50;99.90;;;;;;5025492;28;20056;-61
2021/08/18 12:31:52;;;;;;;15.05;9.55;;;18.60;99.90;;;;;;5022297;28;20037;-60
2021/08/18 12:34:35;;;;;;;14.40;9.02;;;18.60;99.90;;;;;;5026920;28;20075;-61
2021/08/18 12:37:12;;;;;;;11.65;8.40;;;18.70;99.90;;;;;;5009505;28;20036;-57
2021/08/18 12:40:06;;;;;;;13.02;8.00;;;18.70;99.90;;;;;;5011424;28;20049;-57